Time;durP1;ratioP1;P1;durP2;ratioP2;P2;SDS_P1;SDS_P2;PMS_P1;PMS_P2;Temp;Humidity;BMP_temperature;BMP_pressure;BME280_temperature;BME280_humidity;BME280_pressure;Samples;Min_cycle;Max_cycle;Signal;HPM_P1;HPM_P2
2022/03/16 00:00:22;;;;;;;32.33;14.57;;;7.70;99.90;;;;;;5040247;28;20452;-64
2022/03/16 00:02:48;;;;;;;29.13;14.27;;;7.60;99.90;;;;;;5047205;28;20188;-63
2022/03/16 00:05:15;;;;;;;35.37;14.70;;;7.50;99.90;;;;;;5027958;28;20328;-66
2022/03/16 00:07:41;;;;;;;27.80;13.60;;;7.50;99.90;;;;;;5045923;28;20805;-65
2022/03/16 00:10:08;;;;;;;30.80;14.77;;;7.40;99.90;;;;;;5040243;28;20455;-67
2022/03/16 00:12:35;;;;;;;37.23;14.97;;;7.40;99.90;;;;;;5029319;28;20464;-65
2022/03/16 00:15:00;;;;;;;31.47;15.10;;;7.40;99.90;;;;;;5036973;28;20932;-65
2022/03/16 00:17:26;;;;;;;42.00;14.30;;;7.30;99.90;;;;;;5040995;28;20435;-67
2022/03/16 00:19:52;;;;;;;37.37;13.60;;;7.30;99.90;;;;;;5036715;28;20214;-65
2022/03/16 00:22:17;;;;;;;32.23;13.37;;;7.30;99.90;;;;;;5039289;28;20213;-66
2022/03/16 00:24:49;;;;;;;28.90;13.43;;;7.30;99.90;;;;;;5048453;28;20727;-65
2022/03/16 00:27:15;;;;;;;40.80;15.27;;;7.30;99.90;;;;;;5030148;28;20186;-66
2022/03/16 00:29:40;;;;;;;36.97;14.50;;;7.20;99.90;;;;;;5040517;28;20440;-66
2022/03/16 00:32:06;;;;;;;29.83;13.10;;;7.20;99.90;;;;;;5032959;28;20268;-65
2022/03/16 00:34:32;;;;;;;29.37;15.20;;;7.10;99.90;;;;;;5029011;28;20187;-64
2022/03/16 00:36:58;;;;;;;35.33;16.40;;;7.10;99.90;;;;;;5039017;28;21308;-66
2022/03/16 00:39:24;;;;;;;42.57;14.20;;;7.10;99.90;;;;;;5024477;28;20444;-65
2022/03/16 00:41:50;;;;;;;34.93;15.60;;;7.10;99.90;;;;;;5037940;28;21122;-64
2022/03/16 00:44:15;;;;;;;33.07;14.40;;;7.10;99.90;;;;;;5041362;28;20610;-65
2022/03/16 00:46:41;;;;;;;38.67;15.27;;;7.10;99.90;;;;;;5036488;28;20262;-67
2022/03/16 00:49:07;;;;;;;28.87;11.83;;;7.10;99.90;;;;;;5035635;28;20233;-66
2022/03/16 00:51:33;;;;;;;30.00;14.43;;;7.10;99.90;;;;;;5027478;28;20500;-64
2022/03/16 00:53:59;;;;;;;34.90;14.30;;;7.00;99.90;;;;;;5039931;28;20268;-65
2022/03/16 00:56:25;;;;;;;38.87;15.20;;;7.00;99.90;;;;;;5046051;28;20499;-65
2022/03/16 00:58:50;;;;;;;30.47;12.60;;;7.00;99.90;;;;;;5046030;28;20213;-65
2022/03/16 01:01:16;;;;;;;38.47;12.57;;;7.00;99.90;;;;;;5039288;28;20222;-66
2022/03/16 01:03:42;;;;;;;37.87;12.93;;;7.00;99.90;;;;;;5045418;28;20182;-66
2022/03/16 01:06:20;;;;;;;31.07;12.53;;;7.00;99.90;;;;;;5044594;28;20213;-66
2022/03/16 01:08:46;;;;;;;41.43;13.70;;;7.00;99.90;;;;;;5044522;28;20232;-64
2022/03/16 01:11:12;;;;;;;43.53;13.33;;;6.90;99.90;;;;;;5034081;28;20528;-65
2022/03/16 01:13:39;;;;;;;21.77;10.63;;;7.00;99.90;;;;;;5037846;28;20499;-66
2022/03/16 01:16:05;;;;;;;37.93;12.43;;;7.00;99.90;;;;;;5024680;28;20459;-64
2022/03/16 01:18:31;;;;;;;39.40;14.60;;;6.90;99.90;;;;;;5036718;28;20940;-65
2022/03/16 01:20:57;;;;;;;40.13;14.13;;;6.90;99.90;;;;;;5038936;28;20708;-65
2022/03/16 01:23:22;;;;;;;32.70;14.33;;;6.90;99.90;;;;;;5038525;28;20182;-65
2022/03/16 01:25:48;;;;;;;47.03;14.53;;;6.90;99.90;;;;;;5039643;28;20631;-65
2022/03/16 01:28:13;;;;;;;41.17;13.70;;;6.80;99.90;;;;;;5032566;28;20309;-66
2022/03/16 01:30:42;;;;;;;34.20;14.70;;;6.80;99.90;;;;;;5038053;28;20240;-65
2022/03/16 01:33:08;;;;;;;31.37;12.70;;;6.80;99.90;;;;;;5040484;28;20186;-65
2022/03/16 01:35:33;;;;;;;29.67;13.43;;;6.70;99.90;;;;;;5034500;28;21009;-65
2022/03/16 01:37:59;;;;;;;33.23;15.37;;;6.80;99.90;;;;;;5041513;28;20276;-65
2022/03/16 01:40:24;;;;;;;31.97;14.93;;;6.80;99.90;;;;;;5036170;28;20217;-65
2022/03/16 01:42:50;;;;;;;39.83;14.00;;;6.80;99.90;;;;;;5041180;28;20186;-65
2022/03/16 01:45:16;;;;;;;44.47;15.00;;;6.80;99.90;;;;;;5042109;28;20206;-63
2022/03/16 01:47:41;;;;;;;38.90;14.10;;;6.80;99.90;;;;;;5044011;28;20209;-64
2022/03/16 01:50:08;;;;;;;42.53;14.80;;;6.80;99.90;;;;;;5035476;28;20293;-64
2022/03/16 01:52:34;;;;;;;35.70;16.40;;;6.80;99.90;;;;;;5030356;28;20197;-67
2022/03/16 01:55:04;;;;;;;29.30;13.47;;;6.80;99.90;;;;;;5019003;28;20420;-65
2022/03/16 01:57:33;;;;;;;55.97;14.97;;;6.80;99.90;;;;;;5036661;28;20189;-66
2022/03/16 01:59:59;;;;;;;33.63;13.30;;;6.70;99.90;;;;;;5037590;28;20500;-65
2022/03/16 02:02:24;;;;;;;29.00;11.67;;;6.80;99.90;;;;;;5036677;28;20464;-66
2022/03/16 02:04:50;;;;;;;36.27;11.73;;;6.80;99.90;;;;;;5046068;28;20293;-65
2022/03/16 02:07:16;;;;;;;31.43;10.03;;;6.70;99.90;;;;;;5028299;28;20185;-65
2022/03/16 02:09:41;;;;;;;27.80;11.13;;;6.70;99.90;;;;;;5043854;28;20284;-65
2022/03/16 02:12:11;;;;;;;34.00;11.50;;;6.70;99.90;;;;;;5034310;28;20655;-66
2022/03/16 02:14:36;;;;;;;32.47;9.93;;;6.70;99.90;;;;;;5041471;28;20224;-64
2022/03/16 02:17:02;;;;;;;31.13;9.37;;;6.70;99.90;;;;;;5036451;28;21047;-67
2022/03/16 02:19:28;;;;;;;28.10;10.80;;;6.70;99.90;;;;;;5039742;28;20742;-64
2022/03/16 02:21:57;;;;;;;23.10;10.57;;;6.70;99.90;;;;;;5017599;28;20595;-65
2022/03/16 02:24:24;;;;;;;34.27;12.57;;;6.60;99.90;;;;;;5035002;28;20261;-65
2022/03/16 02:26:50;;;;;;;31.53;11.30;;;6.70;99.90;;;;;;5030440;28;20441;-65
2022/03/16 02:29:15;;;;;;;32.07;13.17;;;6.70;99.90;;;;;;5032953;28;20558;-66
2022/03/16 02:31:41;;;;;;;40.40;13.40;;;6.70;99.90;;;;;;5035216;28;20739;-66
2022/03/16 02:34:07;;;;;;;40.17;14.57;;;6.60;99.90;;;;;;5023450;28;20245;-67
2022/03/16 02:36:32;;;;;;;42.73;13.73;;;6.60;99.90;;;;;;5031598;28;20252;-64
2022/03/16 02:38:58;;;;;;;42.70;15.00;;;6.60;99.90;;;;;;5031254;28;20249;-66
2022/03/16 02:41:24;;;;;;;39.63;13.60;;;6.60;99.90;;;;;;5036130;28;20210;-65
2022/03/16 02:43:50;;;;;;;41.20;16.37;;;6.60;99.90;;;;;;5038713;28;21066;-65
2022/03/16 02:46:17;;;;;;;36.43;14.70;;;6.70;99.90;;;;;;5037237;28;20220;-66
2022/03/16 02:48:42;;;;;;;35.67;13.97;;;6.60;99.90;;;;;;5031094;28;20240;-66
2022/03/16 02:51:08;;;;;;;41.23;15.80;;;6.70;99.90;;;;;;5032066;28;20429;-65
2022/03/16 02:53:34;;;;;;;39.93;15.10;;;6.60;99.90;;;;;;5034515;28;20185;-65
2022/03/16 02:55:59;;;;;;;40.40;15.67;;;6.60;99.90;;;;;;5034553;28;20293;-65
2022/03/16 02:58:25;;;;;;;41.50;15.40;;;6.60;99.90;;;;;;5035398;28;20297;-65
2022/03/16 03:00:50;;;;;;;55.27;15.93;;;6.60;99.90;;;;;;5040057;28;20212;-67
2022/03/16 03:03:17;;;;;;;59.37;17.10;;;6.60;99.90;;;;;;5042684;28;20196;-66
2022/03/16 03:05:43;;;;;;;46.20;16.27;;;6.60;99.90;;;;;;5038790;28;20197;-64
2022/03/16 03:08:08;;;;;;;54.47;17.63;;;6.60;99.90;;;;;;5041507;28;20416;-65
2022/03/16 03:10:34;;;;;;;46.77;16.33;;;6.60;99.90;;;;;;5038691;28;20202;-65
2022/03/16 03:13:00;;;;;;;44.40;17.70;;;6.70;99.90;;;;;;5041572;28;20671;-66
2022/03/16 03:15:25;;;;;;;42.03;15.73;;;6.60;99.90;;;;;;5033229;28;20183;-66
2022/03/16 03:17:51;;;;;;;51.77;16.80;;;6.60;99.90;;;;;;5029955;28;20205;-65
2022/03/16 03:20:17;;;;;;;48.40;16.07;;;6.60;99.90;;;;;;5043808;28;20336;-63
2022/03/16 03:22:43;;;;;;;60.43;18.43;;;6.60;99.90;;;;;;5044970;28;20292;-64
2022/03/16 03:25:11;;;;;;;45.77;17.83;;;6.60;99.90;;;;;;5045086;28;21022;-64
2022/03/16 03:27:36;;;;;;;48.97;17.57;;;6.60;99.90;;;;;;5034041;28;20194;-64
2022/03/16 03:30:03;;;;;;;44.27;16.97;;;6.60;99.90;;;;;;5036446;28;20449;-65
2022/03/16 03:32:29;;;;;;;45.00;17.00;;;6.60;99.90;;;;;;5041838;28;20197;-64
2022/03/16 03:34:55;;;;;;;52.70;17.57;;;6.60;99.90;;;;;;5040919;28;20499;-65
2022/03/16 03:37:22;;;;;;;50.07;15.60;;;6.60;99.90;;;;;;5036657;28;20675;-65
2022/03/16 03:39:48;;;;;;;50.97;18.17;;;6.50;99.90;;;;;;5038456;28;20637;-65
2022/03/16 03:42:14;;;;;;;44.53;16.67;;;6.50;99.90;;;;;;5036311;28;20495;-64
2022/03/16 03:44:40;;;;;;;57.60;18.70;;;6.60;99.90;;;;;;5018990;28;20950;-62
2022/03/16 03:47:10;;;;;;;52.67;21.23;;;6.60;99.90;;;;;;5039134;28;20435;-64
2022/03/16 03:49:37;;;;;;;62.60;22.03;;;6.60;99.90;;;;;;5028908;28;20437;-64
2022/03/16 03:52:04;;;;;;;50.23;19.60;;;6.60;99.90;;;;;;5035357;28;20428;-64
2022/03/16 03:54:30;;;;;;;49.43;18.57;;;6.60;99.90;;;;;;5035101;28;20924;-64
2022/03/16 03:56:55;;;;;;;47.10;18.67;;;6.60;99.90;;;;;;5036647;28;20490;-62
2022/03/16 03:59:23;;;;;;;65.00;20.10;;;6.60;99.90;;;;;;5032693;28;20728;-65
2022/03/16 04:01:49;;;;;;;67.70;22.00;;;6.60;99.90;;;;;;5042507;28;20206;-65
2022/03/16 04:04:15;;;;;;;63.73;21.17;;;6.60;99.90;;;;;;5037051;28;20892;-64
2022/03/16 04:06:40;;;;;;;86.00;21.90;;;6.60;99.90;;;;;;5033844;28;20575;-64
2022/03/16 04:09:06;;;;;;;72.23;21.10;;;6.60;99.90;;;;;;5038406;28;20440;-63
2022/03/16 04:11:32;;;;;;;70.77;21.40;;;6.50;99.90;;;;;;5041652;28;20185;-62
2022/03/16 04:13:58;;;;;;;118.10;19.87;;;6.50;99.90;;;;;;5038548;28;20225;-64
2022/03/16 04:16:23;;;;;;;61.50;20.20;;;6.50;99.90;;;;;;5035872;28;20468;-65
2022/03/16 04:18:49;;;;;;;61.40;18.93;;;6.50;99.90;;;;;;5033041;28;20303;-64
2022/03/16 04:21:15;;;;;;;66.57;22.00;;;6.50;99.90;;;;;;5032351;28;20305;-65
2022/03/16 04:23:41;;;;;;;83.53;20.23;;;6.50;99.90;;;;;;5037779;28;20235;-62
2022/03/16 04:26:07;;;;;;;62.53;18.60;;;6.50;99.90;;;;;;5016870;28;20964;-64
2022/03/16 04:28:33;;;;;;;71.47;21.40;;;6.50;99.90;;;;;;5042882;28;20233;-63
2022/03/16 04:31:00;;;;;;;57.47;19.47;;;6.60;99.90;;;;;;5035942;28;20481;-64
2022/03/16 04:33:26;;;;;;;85.70;22.47;;;6.60;99.90;;;;;;5038023;28;20198;-64
2022/03/16 04:35:52;;;;;;;81.60;24.40;;;6.60;99.90;;;;;;5021332;28;20432;-62
2022/03/16 04:38:18;;;;;;;71.57;19.93;;;6.50;99.90;;;;;;5039516;28;20510;-64
2022/03/16 04:40:43;;;;;;;58.87;20.97;;;6.50;99.90;;;;;;5036474;28;20610;-65
2022/03/16 04:43:09;;;;;;;58.63;20.60;;;6.50;99.90;;;;;;5042078;28;20276;-64
2022/03/16 04:45:38;;;;;;;72.07;22.87;;;6.50;99.90;;;;;;5044061;28;20264;-63
2022/03/16 04:48:08;;;;;;;56.33;20.30;;;6.50;99.90;;;;;;5040280;28;20214;-63
2022/03/16 04:50:35;;;;;;;65.10;21.20;;;6.50;99.90;;;;;;5032448;28;20420;-65
2022/03/16 04:53:01;;;;;;;68.97;21.30;;;6.50;99.90;;;;;;5037454;28;20413;-64
2022/03/16 04:55:27;;;;;;;62.77;21.00;;;6.50;99.90;;;;;;5034983;28;20415;-65
2022/03/16 04:57:53;;;;;;;73.23;20.07;;;6.50;99.90;;;;;;5031934;28;20425;-64
2022/03/16 05:00:19;;;;;;;65.03;21.33;;;6.50;99.90;;;;;;5039776;28;20222;-62
2022/03/16 05:02:45;;;;;;;59.77;20.77;;;6.50;99.90;;;;;;5040199;28;20205;-63
2022/03/16 05:05:10;;;;;;;69.83;20.37;;;6.50;99.90;;;;;;5034251;28;20191;-63
2022/03/16 05:07:37;;;;;;;51.43;16.67;;;6.50;99.90;;;;;;5032010;28;20338;-64
2022/03/16 05:10:07;;;;;;;56.67;19.77;;;6.50;99.90;;;;;;5030664;28;20202;-64
2022/03/16 05:12:40;;;;;;;58.27;19.77;;;6.50;99.90;;;;;;5014761;28;20504;-64
2022/03/16 05:15:08;;;;;;;62.33;19.97;;;6.50;99.90;;;;;;5030554;28;21078;-64
2022/03/16 05:17:36;;;;;;;61.33;19.83;;;6.50;99.90;;;;;;5028128;28;20448;-63
2022/03/16 05:20:03;;;;;;;53.20;19.47;;;6.50;99.90;;;;;;5041642;28;20452;-66
2022/03/16 05:22:28;;;;;;;74.13;21.77;;;6.50;99.90;;;;;;5045290;28;20507;-66
2022/03/16 05:24:54;;;;;;;57.17;20.60;;;6.50;99.90;;;;;;5041033;28;20457;-65
2022/03/16 05:27:20;;;;;;;60.60;19.20;;;6.50;99.90;;;;;;5030228;28;20183;-63
2022/03/16 05:29:47;;;;;;;64.47;19.20;;;6.50;99.90;;;;;;5028162;28;20206;-64
2022/03/16 05:32:13;;;;;;;60.33;18.87;;;6.50;99.90;;;;;;5031474;28;20692;-65
2022/03/16 05:34:39;;;;;;;51.23;18.30;;;6.50;99.90;;;;;;5042981;28;20516;-64
2022/03/16 05:37:05;;;;;;;59.90;19.27;;;6.50;99.90;;;;;;5028980;28;21173;-65
2022/03/16 05:39:31;;;;;;;55.73;19.30;;;6.50;99.90;;;;;;5029185;28;20215;-64
2022/03/16 05:41:56;;;;;;;60.33;18.70;;;6.50;99.90;;;;;;5029731;28;20492;-65
2022/03/16 05:44:22;;;;;;;59.90;18.70;;;6.50;99.90;;;;;;5032745;28;20226;-65
2022/03/16 05:46:48;;;;;;;49.37;18.33;;;6.40;99.90;;;;;;5024281;28;20662;-65
2022/03/16 05:49:14;;;;;;;63.73;17.07;;;6.40;99.90;;;;;;5027431;28;20762;-64
2022/03/16 05:51:39;;;;;;;47.07;19.10;;;6.50;99.90;;;;;;5030717;28;20201;-64
2022/03/16 05:54:05;;;;;;;45.80;16.97;;;6.50;99.90;;;;;;5029945;28;20559;-65
2022/03/16 05:56:31;;;;;;;40.17;17.80;;;6.50;99.90;;;;;;5028643;28;20218;-64
2022/03/16 05:58:58;;;;;;;50.90;18.07;;;6.50;99.90;;;;;;5028977;28;20297;-65
2022/03/16 06:01:23;;;;;;;55.90;18.17;;;6.50;99.90;;;;;;5027788;28;20619;-65
2022/03/16 06:03:51;;;;;;;60.93;21.00;;;6.50;99.90;;;;;;5030737;28;21307;-66
2022/03/16 06:06:20;;;;;;;57.37;18.00;;;6.50;99.90;;;;;;5026450;28;20186;-65
2022/03/16 06:08:45;;;;;;;58.47;18.77;;;6.60;99.90;;;;;;5031660;28;21025;-65
2022/03/16 06:11:14;;;;;;;65.27;18.30;;;6.50;99.90;;;;;;5031563;28;20530;-66
2022/03/16 06:13:39;;;;;;;52.63;20.10;;;6.50;99.90;;;;;;5029207;28;20280;-65
2022/03/16 06:16:05;;;;;;;50.40;19.07;;;6.60;99.90;;;;;;5027419;28;20635;-64
2022/03/16 06:18:31;;;;;;;57.20;17.73;;;6.50;99.90;;;;;;5024946;28;20297;-66
2022/03/16 06:20:56;;;;;;;52.53;19.20;;;6.50;99.90;;;;;;5029574;28;20206;-65
2022/03/16 06:23:22;;;;;;;48.87;20.67;;;6.50;99.90;;;;;;5031560;28;20762;-65
2022/03/16 06:25:48;;;;;;;73.83;23.50;;;6.50;99.90;;;;;;5041784;28;20206;-66
2022/03/16 06:28:13;;;;;;;69.13;23.33;;;6.60;99.90;;;;;;5036946;28;20822;-66
2022/03/16 06:30:41;;;;;;;53.83;19.43;;;6.60;99.90;;;;;;5042202;28;20186;-68
2022/03/16 06:33:07;;;;;;;71.27;20.83;;;6.60;99.90;;;;;;5040526;28;20226;-66
2022/03/16 06:35:33;;;;;;;51.50;21.90;;;6.60;99.90;;;;;;5013923;28;20468;-65
2022/03/16 06:37:58;;;;;;;64.73;21.80;;;6.60;99.90;;;;;;5041496;28;20248;-65
2022/03/16 06:40:24;;;;;;;62.57;23.57;;;6.60;99.90;;;;;;5032398;28;20269;-65
2022/03/16 06:42:59;;;;;;;63.97;22.27;;;6.60;99.90;;;;;;5027591;28;20214;-66
2022/03/16 06:45:27;;;;;;;78.73;23.13;;;6.70;99.90;;;;;;5024503;28;20251;-65
2022/03/16 06:47:58;;;;;;;66.27;23.37;;;6.70;99.90;;;;;;5027068;28;20413;-64
2022/03/16 06:50:24;;;;;;;77.83;26.47;;;6.70;99.90;;;;;;5033955;28;20425;-65
2022/03/16 06:52:52;;;;;;;66.50;25.10;;;6.70;99.90;;;;;;5025229;28;20424;-65
2022/03/16 06:55:17;;;;;;;69.20;23.43;;;6.80;99.90;;;;;;5039259;28;20481;-65
2022/03/16 06:57:43;;;;;;;65.80;26.20;;;6.70;99.90;;;;;;5041472;28;20899;-66
2022/03/16 07:00:13;;;;;;;95.20;26.80;;;6.80;99.90;;;;;;5041525;28;20688;-65
2022/03/16 07:02:49;;;;;;;58.77;22.03;;;6.80;99.90;;;;;;5040589;28;20806;-64
2022/03/16 07:05:14;;;;;;;101.13;28.40;;;6.80;99.90;;;;;;5042007;28;20989;-66
2022/03/16 07:07:40;;;;;;;79.80;26.20;;;6.80;99.90;;;;;;5041874;28;20439;-64
2022/03/16 07:10:06;;;;;;;82.13;26.23;;;6.90;99.90;;;;;;5038687;28;20194;-64
2022/03/16 07:12:32;;;;;;;76.07;27.30;;;6.90;99.90;;;;;;5018529;28;20850;-65
2022/03/16 07:14:58;;;;;;;79.53;26.33;;;6.90;99.90;;;;;;5039580;28;20417;-65
2022/03/16 07:17:23;;;;;;;78.97;25.10;;;6.90;99.90;;;;;;5029073;28;20186;-64
2022/03/16 07:19:49;;;;;;;58.50;24.43;;;6.90;99.90;;;;;;5022629;28;20440;-65
2022/03/16 07:22:15;;;;;;;82.17;27.00;;;7.00;99.90;;;;;;5024393;28;20265;-65
2022/03/16 07:24:40;;;;;;;72.27;27.30;;;7.00;99.90;;;;;;5026353;28;20793;-65
2022/03/16 07:27:07;;;;;;;80.27;23.27;;;7.10;99.90;;;;;;5028128;28;20506;-66
2022/03/16 07:29:32;;;;;;;64.67;22.30;;;7.00;99.90;;;;;;5027608;28;20305;-63
2022/03/16 07:31:58;;;;;;;73.20;23.40;;;7.10;99.90;;;;;;5029291;28;20447;-65
2022/03/16 07:34:26;;;;;;;64.23;21.23;;;7.10;99.90;;;;;;5028252;28;20269;-66
2022/03/16 07:36:53;;;;;;;61.13;24.20;;;7.20;99.90;;;;;;5029882;28;20188;-66
2022/03/16 07:39:19;;;;;;;65.67;24.07;;;7.20;99.90;;;;;;5029246;28;21010;-63
2022/03/16 07:41:44;;;;;;;71.90;24.13;;;7.20;99.90;;;;;;5032027;28;20472;-65
2022/03/16 07:44:10;;;;;;;54.93;24.87;;;7.30;99.90;;;;;;5023555;28;20182;-65
2022/03/16 07:46:35;;;;;;;56.23;22.43;;;7.30;99.90;;;;;;5038861;28;20181;-66
2022/03/16 07:49:01;;;;;;;61.23;23.57;;;7.30;99.90;;;;;;5035964;28;20214;-66
2022/03/16 07:51:27;;;;;;;65.27;24.20;;;7.30;99.90;;;;;;5042886;28;20201;-66
2022/03/16 07:53:53;;;;;;;51.50;22.00;;;7.30;99.90;;;;;;5039936;28;20765;-66
2022/03/16 07:56:19;;;;;;;53.57;23.27;;;7.30;99.90;;;;;;5039677;28;20556;-65
2022/03/16 07:58:45;;;;;;;71.27;24.33;;;7.40;99.90;;;;;;5025881;28;20249;-66
2022/03/16 08:01:11;;;;;;;58.63;21.50;;;7.40;99.90;;;;;;5034498;28;20652;-65
2022/03/16 08:03:36;;;;;;;58.77;22.43;;;7.40;99.90;;;;;;5040450;28;20432;-65
2022/03/16 08:06:03;;;;;;;69.60;19.40;;;7.50;99.90;;;;;;5041930;28;20420;-67
2022/03/16 08:08:29;;;;;;;44.00;17.63;;;7.50;99.90;;;;;;5038370;28;20616;-66
2022/03/16 08:10:55;;;;;;;86.23;24.53;;;7.60;99.90;;;;;;5041245;28;20428;-64
2022/03/16 08:13:21;;;;;;;44.97;19.63;;;7.70;99.90;;;;;;5034911;28;20213;-64
2022/03/16 08:15:46;;;;;;;60.00;20.23;;;7.80;99.90;;;;;;5037580;28;20509;-63
2022/03/16 08:18:12;;;;;;;60.20;23.97;;;7.80;99.90;;;;;;5038187;28;20185;-65
2022/03/16 08:20:38;;;;;;;53.80;21.20;;;7.80;99.90;;;;;;5042151;28;20190;-66
2022/03/16 08:23:04;;;;;;;60.67;21.50;;;7.90;99.90;;;;;;5027805;28;20187;-65
2022/03/16 08:25:30;;;;;;;47.33;22.83;;;7.90;99.90;;;;;;5035675;28;20428;-65
2022/03/16 08:27:56;;;;;;;54.87;20.37;;;8.00;99.90;;;;;;5038163;28;20266;-66
2022/03/16 08:30:21;;;;;;;52.83;21.40;;;8.00;99.90;;;;;;5038184;28;20202;-66
2022/03/16 08:32:47;;;;;;;60.10;20.17;;;8.10;99.90;;;;;;5039109;28;20190;-65
2022/03/16 08:35:12;;;;;;;45.60;21.00;;;8.20;99.90;;;;;;5036710;28;20186;-65
2022/03/16 08:37:39;;;;;;;50.40;18.37;;;8.20;99.90;;;;;;5035286;28;20190;-65
2022/03/16 08:40:07;;;;;;;43.03;19.67;;;8.20;99.90;;;;;;5035457;28;20293;-65
2022/03/16 08:42:33;;;;;;;60.50;21.87;;;8.20;99.90;;;;;;5038632;28;21032;-65
2022/03/16 08:44:58;;;;;;;55.33;21.10;;;8.10;99.90;;;;;;5040793;28;20425;-65
2022/03/16 08:47:24;;;;;;;63.77;20.03;;;8.20;99.90;;;;;;5042511;28;20233;-65
2022/03/16 08:49:55;;;;;;;48.67;21.20;;;8.20;99.90;;;;;;5040782;28;20581;-63
2022/03/16 08:52:22;;;;;;;54.33;20.77;;;8.20;99.90;;;;;;5041621;28;20186;-65
2022/03/16 08:54:48;;;;;;;70.70;23.43;;;8.20;99.90;;;;;;5044380;28;20933;-64
2022/03/16 08:57:14;;;;;;;65.97;21.57;;;8.20;99.90;;;;;;5039535;28;20500;-63
2022/03/16 08:59:41;;;;;;;57.90;23.37;;;8.20;99.90;;;;;;5042459;28;20305;-65
2022/03/16 09:02:07;;;;;;;49.10;20.20;;;8.30;99.90;;;;;;5039702;28;20457;-65
2022/03/16 09:04:34;;;;;;;65.60;25.13;;;8.10;99.90;;;;;;5030854;28;20425;-65
2022/03/16 09:07:00;;;;;;;54.60;20.10;;;8.20;99.90;;;;;;5034335;28;20726;-65
2022/03/16 09:09:26;;;;;;;62.43;21.80;;;8.10;99.90;;;;;;5036957;28;20536;-65
2022/03/16 09:11:52;;;;;;;54.40;21.77;;;8.20;99.90;;;;;;5031191;28;20414;-65
2022/03/16 09:14:18;;;;;;;52.90;21.10;;;8.20;99.90;;;;;;5035686;28;20562;-65
2022/03/16 09:16:47;;;;;;;50.00;17.87;;;8.30;99.90;;;;;;5040821;28;20592;-65
2022/03/16 09:19:20;;;;;;;59.23;18.73;;;8.30;99.90;;;;;;5036542;28;20269;-65
2022/03/16 09:21:49;;;;;;;48.70;20.00;;;8.30;99.90;;;;;;5032060;28;20466;-64
2022/03/16 09:24:16;;;;;;;57.47;21.97;;;8.30;99.90;;;;;;5029430;28;20421;-65
2022/03/16 09:26:42;;;;;;;39.37;17.33;;;8.20;99.90;;;;;;5027498;28;20413;-65
2022/03/16 09:29:09;;;;;;;48.87;17.63;;;8.30;99.90;;;;;;5026043;28;20880;-64
2022/03/16 09:31:36;;;;;;;43.13;17.40;;;8.40;99.90;;;;;;5027417;28;20456;-65
2022/03/16 09:34:05;;;;;;;33.63;13.77;;;8.30;99.90;;;;;;5027977;28;20437;-65
2022/03/16 09:36:32;;;;;;;35.97;14.80;;;8.30;99.90;;;;;;5027935;28;21310;-65
2022/03/16 09:38:58;;;;;;;39.10;16.40;;;8.30;99.90;;;;;;5029535;28;20453;-64
2022/03/16 09:41:26;;;;;;;39.27;15.90;;;8.30;99.90;;;;;;5029054;28;20469;-64
2022/03/16 09:43:53;;;;;;;39.80;17.13;;;8.30;99.90;;;;;;5030717;28;20425;-66
2022/03/16 09:46:24;;;;;;;40.07;17.70;;;8.40;99.90;;;;;;5030939;28;20421;-65
2022/03/16 09:48:50;;;;;;;34.17;18.00;;;8.30;99.90;;;;;;5027730;28;21074;-65
2022/03/16 09:51:17;;;;;;;37.53;16.93;;;8.40;99.90;;;;;;5029139;28;20445;-63
2022/03/16 09:53:43;;;;;;;34.60;16.97;;;8.60;99.90;;;;;;5029044;28;20221;-65
2022/03/16 09:56:09;;;;;;;45.97;18.47;;;8.50;99.90;;;;;;5029965;28;20496;-65
2022/03/16 09:58:34;;;;;;;35.07;15.57;;;8.60;99.90;;;;;;5027128;28;20523;-65
2022/03/16 10:01:04;;;;;;;44.37;19.40;;;8.60;99.90;;;;;;5028038;28;20872;-65
2022/03/16 10:03:31;;;;;;;42.23;16.37;;;8.60;99.90;;;;;;5029109;28;20210;-65
2022/03/16 10:05:58;;;;;;;30.93;17.07;;;8.70;99.90;;;;;;5027274;28;20448;-65
2022/03/16 10:08:27;;;;;;;36.13;15.53;;;8.80;99.90;;;;;;5026744;28;20540;-66
2022/03/16 10:13:48;;;;;;;35.40;15.27;;;8.90;99.90;;;;;;5022346;28;20405;-65
2022/03/16 10:16:13;;;;;;;43.30;16.50;;;8.90;99.90;;;;;;5027460;28;20497;-64
2022/03/16 10:18:39;;;;;;;40.77;16.00;;;8.90;99.90;;;;;;5022651;28;20887;-66
2022/03/16 10:21:05;;;;;;;43.70;17.07;;;8.80;99.90;;;;;;5026348;28;20698;-64
2022/03/16 10:23:31;;;;;;;37.20;14.63;;;8.90;99.90;;;;;;5028212;28;20313;-66
2022/03/16 10:26:01;;;;;;;30.77;13.37;;;9.00;99.90;;;;;;5009581;28;20296;-64
2022/03/16 10:28:33;;;;;;;41.33;17.00;;;9.00;99.90;;;;;;5027855;28;20573;-65
2022/03/16 10:30:59;;;;;;;37.50;15.77;;;9.00;99.90;;;;;;5027961;28;20417;-66
2022/03/16 10:33:31;;;;;;;37.83;16.70;;;8.90;99.90;;;;;;5028516;28;20467;-65
2022/03/16 10:36:08;;;;;;;31.63;14.00;;;8.80;99.90;;;;;;5021461;28;21034;-65
2022/03/16 10:38:43;;;;;;;39.30;15.60;;;8.90;99.90;;;;;;5022125;28;20448;-65
2022/03/16 10:47:00;;;;;;;38.57;15.40;;;9.20;99.90;;;;;;5028438;28;20436;-65
2022/03/16 10:49:32;;;;;;;44.43;16.53;;;9.30;99.90;;;;;;5026305;28;20972;-65
2022/03/16 10:52:05;;;;;;;30.83;14.57;;;9.30;99.90;;;;;;5025294;28;20747;-66
2022/03/16 10:54:32;;;;;;;30.67;13.33;;;9.40;99.90;;;;;;5032485;28;20433;-66
2022/03/16 10:57:00;;;;;;;30.47;13.03;;;9.50;99.90;;;;;;5035100;28;21025;-64
2022/03/16 10:59:31;;;;;;;37.57;14.13;;;9.60;99.90;;;;;;5026273;28;20476;-66
2022/03/16 11:02:01;;;;;;;34.83;12.10;;;9.70;99.90;;;;;;5038568;28;20464;-65
2022/03/16 11:04:29;;;;;;;28.30;13.40;;;9.80;99.90;;;;;;5040350;28;20440;-66
2022/03/16 11:06:55;;;;;;;28.73;13.53;;;10.00;99.90;;;;;;5015132;28;20424;-66
2022/03/16 11:09:22;;;;;;;24.80;12.07;;;9.80;99.90;;;;;;5030849;28;21181;-66
2022/03/16 11:14:34;;;;;;;27.93;12.23;;;9.90;99.90;;;;;;5033417;28;21077;-66
2022/03/16 11:17:01;;;;;;;19.67;11.17;;;9.80;99.90;;;;;;5027728;28;20440;-66
2022/03/16 11:19:29;;;;;;;31.10;13.43;;;9.80;99.90;;;;;;5020817;28;20453;-65
2022/03/16 11:22:19;;;;;;;24.00;11.73;;;9.80;99.90;;;;;;5033758;28;20524;-66
2022/03/16 11:24:50;;;;;;;30.77;12.50;;;9.70;99.90;;;;;;5033772;28;20788;-64
2022/03/16 11:27:40;;;;;;;31.10;13.77;;;9.80;99.90;;;;;;5026490;28;20432;-65
2022/03/16 11:30:12;;;;;;;36.53;12.83;;;9.90;99.90;;;;;;5035029;28;20468;-65
2022/03/16 11:32:43;;;;;;;30.00;12.10;;;9.80;99.90;;;;;;5038764;28;20428;-65
2022/03/16 11:35:14;;;;;;;26.67;11.70;;;10.00;99.90;;;;;;5027791;28;20421;-65
2022/03/16 11:37:43;;;;;;;23.73;10.80;;;10.20;99.90;;;;;;5036079;28;20429;-65
2022/03/16 11:40:16;;;;;;;30.03;12.83;;;10.30;99.90;;;;;;5027934;28;20449;-65
2022/03/16 11:43:04;;;;;;;25.80;11.67;;;10.50;99.90;;;;;;5035928;28;20526;-66
2022/03/16 11:45:50;;;;;;;23.13;10.50;;;10.70;99.90;;;;;;5033131;28;20428;-66
2022/03/16 11:48:37;;;;;;;24.90;10.37;;;10.80;99.90;;;;;;5021216;28;20936;-65
2022/03/16 11:51:14;;;;;;;20.53;10.40;;;10.70;99.90;;;;;;5034623;28;20409;-65
2022/03/16 11:56:23;;;;;;;24.17;11.10;;;10.70;99.90;;;;;;5036351;28;20420;-65
2022/03/16 11:59:03;;;;;;;25.43;11.00;;;10.70;99.90;;;;;;5030300;28;20535;-65
2022/03/16 12:01:32;;;;;;;24.60;10.90;;;10.40;99.90;;;;;;5034872;28;20475;-66
2022/03/16 12:04:15;;;;;;;25.37;12.70;;;10.50;99.90;;;;;;5034458;28;20474;-66
2022/03/16 12:07:02;;;;;;;23.40;10.07;;;10.60;99.90;;;;;;5044409;28;20927;-65
2022/03/16 12:09:38;;;;;;;15.60;9.20;;;10.50;99.90;;;;;;5037620;28;20969;-65
2022/03/16 12:15:11;;;;;;;25.40;12.03;;;10.80;99.90;;;;;;5036453;28;21034;-65
2022/03/16 12:17:37;;;;;;;21.77;9.47;;;10.70;99.90;;;;;;5043726;28;20431;-65
2022/03/16 12:20:35;;;;;;;29.00;10.97;;;10.90;99.90;;;;;;5042162;28;20444;-65
2022/03/16 12:23:10;;;;;;;24.53;9.87;;;11.00;99.90;;;;;;5030047;28;20475;-65
2022/03/16 12:25:39;;;;;;;26.07;10.87;;;11.00;99.90;;;;;;5041831;28;20438;-66
2022/03/16 12:31:00;;;;;;;26.07;10.67;;;10.80;99.90;;;;;;5040339;28;20464;-65
2022/03/16 12:33:28;;;;;;;18.73;9.00;;;10.80;99.90;;;;;;5046339;28;20498;-65
2022/03/16 12:36:05;;;;;;;23.70;10.97;;;10.80;99.90;;;;;;5037823;28;20428;-65
2022/03/16 12:38:33;;;;;;;19.87;10.17;;;10.90;99.90;;;;;;5018487;28;21211;-66
2022/03/16 12:43:46;;;;;;;17.97;9.07;;;11.00;99.90;;;;;;5039921;28;20479;-65
2022/03/16 12:46:32;;;;;;;18.87;9.03;;;11.00;99.90;;;;;;5043365;28;20535;-65
2022/03/16 12:49:07;;;;;;;19.93;8.97;;;11.20;99.90;;;;;;5041269;28;20442;-65
2022/03/16 12:51:43;;;;;;;18.60;8.53;;;11.30;99.90;;;;;;5041160;28;20427;-62
2022/03/16 12:54:09;;;;;;;19.63;9.97;;;11.30;99.90;;;;;;5044833;28;20422;-65
2022/03/16 12:56:43;;;;;;;16.93;8.60;;;11.30;99.90;;;;;;5042228;28;20813;-66
2022/03/16 12:59:10;;;;;;;20.83;8.30;;;11.30;99.90;;;;;;5034885;28;20483;-64